sensor_id;sensor_type;location;lat;lon;timestamp;P1;durP1;ratioP1;P2;durP2;ratioP2
75935;SDS011;64614;32.062;34.834;2022-12-31T00:01:04;9.68;;;5.20;;
75935;SDS011;64614;32.062;34.834;2022-12-31T00:03:31;10.77;;;5.13;;
75935;SDS011;64614;32.062;34.834;2022-12-31T00:05:57;10.18;;;5.28;;
75935;SDS011;64614;32.062;34.834;2022-12-31T00:08:23;10.38;;;4.88;;
75935;SDS011;64614;32.062;34.834;2022-12-31T00:10:49;8.73;;;4.88;;
75935;SDS011;64614;32.062;34.834;2022-12-31T00:13:14;9.27;;;4.90;;
75935;SDS011;64614;32.062;34.834;2022-12-31T00:15:41;9.30;;;4.90;;
75935;SDS011;64614;32.062;34.834;2022-12-31T00:20:46;10.65;;;4.97;;
75935;SDS011;64614;32.062;34.834;2022-12-31T00:23:12;9.55;;;5.20;;
75935;SDS011;64614;32.062;34.834;2022-12-31T00:25:37;9.40;;;5.15;;
75935;SDS011;64614;32.062;34.834;2022-12-31T00:28:03;13.32;;;4.95;;
75935;SDS011;64614;32.062;34.834;2022-12-31T00:30:29;10.60;;;5.05;;
75935;SDS011;64614;32.062;34.834;2022-12-31T00:32:55;10.32;;;4.82;;
75935;SDS011;64614;32.062;34.834;2022-12-31T00:35:20;8.90;;;4.78;;
75935;SDS011;64614;32.062;34.834;2022-12-31T00:37:46;10.50;;;5.00;;
75935;SDS011;64614;32.062;34.834;2022-12-31T00:40:12;9.88;;;5.18;;
75935;SDS011;64614;32.062;34.834;2022-12-31T00:42:38;10.07;;;5.05;;
75935;SDS011;64614;32.062;34.834;2022-12-31T00:45:04;9.20;;;5.15;;
75935;SDS011;64614;32.062;34.834;2022-12-31T00:47:30;11.18;;;5.90;;
75935;SDS011;64614;32.062;34.834;2022-12-31T00:49:55;9.90;;;5.30;;
75935;SDS011;64614;32.062;34.834;2022-12-31T00:52:21;9.50;;;5.03;;
75935;SDS011;64614;32.062;34.834;2022-12-31T00:54:47;11.77;;;5.40;;
75935;SDS011;64614;32.062;34.834;2022-12-31T00:57:12;10.20;;;5.30;;
75935;SDS011;64614;32.062;34.834;2022-12-31T00:59:40;10.10;;;5.47;;
75935;SDS011;64614;32.062;34.834;2022-12-31T01:02:06;9.93;;;5.30;;
75935;SDS011;64614;32.062;34.834;2022-12-31T01:04:32;10.60;;;5.30;;
75935;SDS011;64614;32.062;34.834;2022-12-31T01:07:00;9.52;;;5.20;;
75935;SDS011;64614;32.062;34.834;2022-12-31T01:09:29;10.63;;;5.13;;
75935;SDS011;64614;32.062;34.834;2022-12-31T01:11:58;10.10;;;5.28;;
75935;SDS011;64614;32.062;34.834;2022-12-31T01:14:24;9.93;;;5.40;;
75935;SDS011;64614;32.062;34.834;2022-12-31T01:16:50;10.23;;;4.85;;
75935;SDS011;64614;32.062;34.834;2022-12-31T01:19:21;8.73;;;4.90;;
75935;SDS011;64614;32.062;34.834;2022-12-31T01:21:50;11.05;;;6.13;;
75935;SDS011;64614;32.062;34.834;2022-12-31T01:24:16;9.55;;;4.90;;
75935;SDS011;64614;32.062;34.834;2022-12-31T01:26:42;10.50;;;4.93;;
75935;SDS011;64614;32.062;34.834;2022-12-31T01:29:08;11.25;;;5.18;;
75935;SDS011;64614;32.062;34.834;2022-12-31T01:31:35;11.98;;;5.50;;
75935;SDS011;64614;32.062;34.834;2022-12-31T01:34:02;10.02;;;5.35;;
75935;SDS011;64614;32.062;34.834;2022-12-31T01:36:28;10.52;;;5.55;;
75935;SDS011;64614;32.062;34.834;2022-12-31T01:38:56;10.63;;;5.18;;
75935;SDS011;64614;32.062;34.834;2022-12-31T01:41:25;11.13;;;5.18;;
75935;SDS011;64614;32.062;34.834;2022-12-31T01:43:57;10.52;;;5.55;;
75935;SDS011;64614;32.062;34.834;2022-12-31T01:51:56;10.18;;;5.28;;
75935;SDS011;64614;32.062;34.834;2022-12-31T01:54:27;10.68;;;5.70;;
75935;SDS011;64614;32.062;34.834;2022-12-31T01:56:55;10.05;;;5.45;;
75935;SDS011;64614;32.062;34.834;2022-12-31T01:59:22;10.25;;;5.20;;
75935;SDS011;64614;32.062;34.834;2022-12-31T02:04:20;11.40;;;5.43;;
75935;SDS011;64614;32.062;34.834;2022-12-31T02:06:49;9.50;;;5.13;;
75935;SDS011;64614;32.062;34.834;2022-12-31T02:09:20;10.10;;;5.25;;
75935;SDS011;64614;32.062;34.834;2022-12-31T02:11:46;10.68;;;5.65;;
75935;SDS011;64614;32.062;34.834;2022-12-31T02:31:00;10.85;;;5.57;;
75935;SDS011;64614;32.062;34.834;2022-12-31T02:36:27;10.52;;;5.60;;
75935;SDS011;64614;32.062;34.834;2022-12-31T02:38:56;10.52;;;5.47;;
75935;SDS011;64614;32.062;34.834;2022-12-31T02:41:22;12.38;;;6.10;;
75935;SDS011;64614;32.062;34.834;2022-12-31T02:52:46;10.65;;;5.82;;
75935;SDS011;64614;32.062;34.834;2022-12-31T03:00:40;12.82;;;5.97;;
75935;SDS011;64614;32.062;34.834;2022-12-31T03:03:35;10.88;;;6.20;;
75935;SDS011;64614;32.062;34.834;2022-12-31T03:06:07;10.48;;;5.68;;
75935;SDS011;64614;32.062;34.834;2022-12-31T03:08:35;11.07;;;5.68;;
75935;SDS011;64614;32.062;34.834;2022-12-31T03:14:05;11.68;;;6.35;;
75935;SDS011;64614;32.062;34.834;2022-12-31T03:16:31;11.25;;;5.60;;
75935;SDS011;64614;32.062;34.834;2022-12-31T03:18:58;11.45;;;5.72;;
75935;SDS011;64614;32.062;34.834;2022-12-31T03:21:42;11.63;;;5.80;;
75935;SDS011;64614;32.062;34.834;2022-12-31T03:24:26;10.57;;;5.60;;
75935;SDS011;64614;32.062;34.834;2022-12-31T03:27:10;11.10;;;5.60;;
75935;SDS011;64614;32.062;34.834;2022-12-31T03:29:36;13.25;;;6.57;;
75935;SDS011;64614;32.062;34.834;2022-12-31T03:32:01;12.80;;;6.13;;
75935;SDS011;64614;32.062;34.834;2022-12-31T03:34:27;14.88;;;5.85;;
75935;SDS011;64614;32.062;34.834;2022-12-31T03:36:53;15.77;;;6.45;;
75935;SDS011;64614;32.062;34.834;2022-12-31T03:39:18;14.82;;;5.70;;
75935;SDS011;64614;32.062;34.834;2022-12-31T03:41:44;12.35;;;6.07;;
75935;SDS011;64614;32.062;34.834;2022-12-31T03:44:10;15.75;;;6.32;;
75935;SDS011;64614;32.062;34.834;2022-12-31T03:46:35;14.32;;;6.03;;
75935;SDS011;64614;32.062;34.834;2022-12-31T03:49:02;10.75;;;5.50;;
75935;SDS011;64614;32.062;34.834;2022-12-31T03:51:28;16.75;;;5.68;;
75935;SDS011;64614;32.062;34.834;2022-12-31T03:53:55;11.13;;;5.22;;
75935;SDS011;64614;32.062;34.834;2022-12-31T03:58:48;12.30;;;5.97;;
75935;SDS011;64614;32.062;34.834;2022-12-31T04:01:14;14.93;;;5.88;;
75935;SDS011;64614;32.062;34.834;2022-12-31T04:03:40;12.45;;;5.38;;
75935;SDS011;64614;32.062;34.834;2022-12-31T04:06:05;19.75;;;5.80;;
75935;SDS011;64614;32.062;34.834;2022-12-31T04:08:31;12.07;;;5.43;;
75935;SDS011;64614;32.062;34.834;2022-12-31T04:10:57;11.63;;;5.75;;
75935;SDS011;64614;32.062;34.834;2022-12-31T04:13:22;11.00;;;5.82;;
75935;SDS011;64614;32.062;34.834;2022-12-31T04:15:48;11.10;;;5.72;;
75935;SDS011;64614;32.062;34.834;2022-12-31T04:18:15;13.20;;;5.95;;
75935;SDS011;64614;32.062;34.834;2022-12-31T04:20:41;15.18;;;5.85;;
75935;SDS011;64614;32.062;34.834;2022-12-31T04:23:07;11.98;;;5.97;;
75935;SDS011;64614;32.062;34.834;2022-12-31T04:25:33;13.23;;;6.78;;
75935;SDS011;64614;32.062;34.834;2022-12-31T04:27:58;13.15;;;6.90;;
75935;SDS011;64614;32.062;34.834;2022-12-31T04:30:24;12.68;;;6.53;;
75935;SDS011;64614;32.062;34.834;2022-12-31T04:32:50;13.95;;;7.10;;
75935;SDS011;64614;32.062;34.834;2022-12-31T04:35:15;15.27;;;6.78;;
75935;SDS011;64614;32.062;34.834;2022-12-31T04:37:41;14.60;;;6.95;;
75935;SDS011;64614;32.062;34.834;2022-12-31T04:40:07;14.60;;;6.68;;
75935;SDS011;64614;32.062;34.834;2022-12-31T04:42:34;24.08;;;7.28;;
75935;SDS011;64614;32.062;34.834;2022-12-31T04:45:00;12.10;;;6.50;;
75935;SDS011;64614;32.062;34.834;2022-12-31T04:47:26;14.82;;;7.22;;
75935;SDS011;64614;32.062;34.834;2022-12-31T04:49:51;17.40;;;6.47;;
75935;SDS011;64614;32.062;34.834;2022-12-31T04:52:17;14.20;;;6.38;;
75935;SDS011;64614;32.062;34.834;2022-12-31T04:54:42;14.15;;;7.72;;
75935;SDS011;64614;32.062;34.834;2022-12-31T04:57:08;18.13;;;7.50;;
75935;SDS011;64614;32.062;34.834;2022-12-31T04:59:34;14.98;;;7.50;;
75935;SDS011;64614;32.062;34.834;2022-12-31T05:01:59;17.70;;;8.30;;
75935;SDS011;64614;32.062;34.834;2022-12-31T05:04:25;17.00;;;8.10;;
75935;SDS011;64614;32.062;34.834;2022-12-31T05:06:51;16.10;;;8.07;;
75935;SDS011;64614;32.062;34.834;2022-12-31T05:09:16;14.60;;;7.25;;
75935;SDS011;64614;32.062;34.834;2022-12-31T05:11:42;17.15;;;7.85;;
75935;SDS011;64614;32.062;34.834;2022-12-31T05:14:08;16.02;;;8.18;;
75935;SDS011;64614;32.062;34.834;2022-12-31T05:16:33;15.75;;;7.78;;
75935;SDS011;64614;32.062;34.834;2022-12-31T05:19:00;15.40;;;7.82;;
75935;SDS011;64614;32.062;34.834;2022-12-31T05:21:26;13.80;;;7.13;;
75935;SDS011;64614;32.062;34.834;2022-12-31T05:23:51;15.55;;;7.40;;
75935;SDS011;64614;32.062;34.834;2022-12-31T05:26:17;15.18;;;7.07;;
75935;SDS011;64614;32.062;34.834;2022-12-31T05:28:43;14.68;;;7.65;;
75935;SDS011;64614;32.062;34.834;2022-12-31T05:31:09;14.57;;;7.68;;
75935;SDS011;64614;32.062;34.834;2022-12-31T05:33:34;15.65;;;8.02;;
75935;SDS011;64614;32.062;34.834;2022-12-31T05:36:01;18.27;;;8.45;;
75935;SDS011;64614;32.062;34.834;2022-12-31T05:38:28;19.20;;;8.73;;
75935;SDS011;64614;32.062;34.834;2022-12-31T05:41:01;16.35;;;8.25;;
75935;SDS011;64614;32.062;34.834;2022-12-31T05:43:28;20.30;;;8.45;;
75935;SDS011;64614;32.062;34.834;2022-12-31T05:45:54;17.10;;;8.38;;
75935;SDS011;64614;32.062;34.834;2022-12-31T05:48:19;21.60;;;8.77;;
75935;SDS011;64614;32.062;34.834;2022-12-31T05:50:45;20.88;;;8.20;;
75935;SDS011;64614;32.062;34.834;2022-12-31T05:53:11;29.20;;;8.77;;
75935;SDS011;64614;32.062;34.834;2022-12-31T05:55:37;21.52;;;8.77;;
75935;SDS011;64614;32.062;34.834;2022-12-31T05:58:02;29.00;;;9.40;;
75935;SDS011;64614;32.062;34.834;2022-12-31T06:00:28;20.05;;;8.23;;
75935;SDS011;64614;32.062;34.834;2022-12-31T06:02:53;18.45;;;8.02;;
75935;SDS011;64614;32.062;34.834;2022-12-31T06:05:20;20.98;;;8.65;;
75935;SDS011;64614;32.062;34.834;2022-12-31T06:07:46;20.48;;;8.27;;
75935;SDS011;64614;32.062;34.834;2022-12-31T06:10:11;21.75;;;8.23;;
75935;SDS011;64614;32.062;34.834;2022-12-31T06:12:37;18.52;;;8.07;;
75935;SDS011;64614;32.062;34.834;2022-12-31T06:15:03;16.33;;;7.90;;
75935;SDS011;64614;32.062;34.834;2022-12-31T06:17:29;16.77;;;8.07;;
75935;SDS011;64614;32.062;34.834;2022-12-31T06:19:56;18.80;;;8.05;;
75935;SDS011;64614;32.062;34.834;2022-12-31T06:22:23;17.88;;;9.20;;
75935;SDS011;64614;32.062;34.834;2022-12-31T06:24:48;17.17;;;9.88;;
75935;SDS011;64614;32.062;34.834;2022-12-31T06:27:14;23.60;;;10.60;;
75935;SDS011;64614;32.062;34.834;2022-12-31T06:29:40;20.92;;;10.27;;
75935;SDS011;64614;32.062;34.834;2022-12-31T06:32:05;22.13;;;11.15;;
75935;SDS011;64614;32.062;34.834;2022-12-31T06:34:31;20.65;;;10.35;;
75935;SDS011;64614;32.062;34.834;2022-12-31T06:36:57;20.75;;;11.60;;
75935;SDS011;64614;32.062;34.834;2022-12-31T06:39:24;21.85;;;11.10;;
75935;SDS011;64614;32.062;34.834;2022-12-31T06:41:50;24.15;;;11.27;;
75935;SDS011;64614;32.062;34.834;2022-12-31T06:44:15;24.50;;;11.07;;
75935;SDS011;64614;32.062;34.834;2022-12-31T06:46:41;20.08;;;11.15;;
75935;SDS011;64614;32.062;34.834;2022-12-31T06:49:07;20.98;;;11.15;;
75935;SDS011;64614;32.062;34.834;2022-12-31T06:51:32;21.08;;;10.15;;
75935;SDS011;64614;32.062;34.834;2022-12-31T06:53:58;21.92;;;10.65;;
75935;SDS011;64614;32.062;34.834;2022-12-31T06:56:24;18.92;;;10.20;;
75935;SDS011;64614;32.062;34.834;2022-12-31T06:58:53;22.73;;;11.07;;
75935;SDS011;64614;32.062;34.834;2022-12-31T07:09:54;21.30;;;8.63;;
75935;SDS011;64614;32.062;34.834;2022-12-31T07:20:51;18.65;;;7.88;;
75935;SDS011;64614;32.062;34.834;2022-12-31T07:23:17;19.70;;;8.27;;
75935;SDS011;64614;32.062;34.834;2022-12-31T07:25:44;19.65;;;7.93;;
75935;SDS011;64614;32.062;34.834;2022-12-31T07:28:54;15.55;;;7.63;;
75935;SDS011;64614;32.062;34.834;2022-12-31T07:31:27;24.48;;;7.95;;
75935;SDS011;64614;32.062;34.834;2022-12-31T07:33:57;18.13;;;8.48;;
75935;SDS011;64614;32.062;34.834;2022-12-31T07:39:40;16.75;;;7.47;;
75935;SDS011;64614;32.062;34.834;2022-12-31T07:47:42;20.33;;;7.95;;
75935;SDS011;64614;32.062;34.834;2022-12-31T07:50:14;19.20;;;8.57;;
75935;SDS011;64614;32.062;34.834;2022-12-31T07:52:42;16.73;;;8.23;;
75935;SDS011;64614;32.062;34.834;2022-12-31T07:55:08;20.85;;;7.97;;
75935;SDS011;64614;32.062;34.834;2022-12-31T07:57:37;17.23;;;8.30;;
75935;SDS011;64614;32.062;34.834;2022-12-31T08:00:12;16.55;;;8.02;;
75935;SDS011;64614;32.062;34.834;2022-12-31T08:13:59;14.02;;;7.55;;
75935;SDS011;64614;32.062;34.834;2022-12-31T08:16:26;13.75;;;7.15;;
75935;SDS011;64614;32.062;34.834;2022-12-31T08:18:52;12.73;;;6.82;;
75935;SDS011;64614;32.062;34.834;2022-12-31T08:23:59;13.90;;;7.05;;
75935;SDS011;64614;32.062;34.834;2022-12-31T08:46:06;11.98;;;6.80;;
75935;SDS011;64614;32.062;34.834;2022-12-31T08:48:43;14.15;;;6.88;;
75935;SDS011;64614;32.062;34.834;2022-12-31T08:51:20;14.85;;;7.38;;
75935;SDS011;64614;32.062;34.834;2022-12-31T08:53:47;13.20;;;6.90;;
75935;SDS011;64614;32.062;34.834;2022-12-31T08:56:21;12.23;;;6.47;;
75935;SDS011;64614;32.062;34.834;2022-12-31T09:01:42;15.07;;;6.65;;
75935;SDS011;64614;32.062;34.834;2022-12-31T09:07:12;12.88;;;6.53;;
75935;SDS011;64614;32.062;34.834;2022-12-31T09:15:36;12.48;;;6.38;;
75935;SDS011;64614;32.062;34.834;2022-12-31T09:18:06;13.38;;;6.70;;
75935;SDS011;64614;32.062;34.834;2022-12-31T09:20:33;13.10;;;6.55;;
75935;SDS011;64614;32.062;34.834;2022-12-31T09:23:00;12.73;;;6.75;;
75935;SDS011;64614;32.062;34.834;2022-12-31T09:25:27;12.40;;;6.68;;
75935;SDS011;64614;32.062;34.834;2022-12-31T09:30:43;12.27;;;6.28;;
75935;SDS011;64614;32.062;34.834;2022-12-31T09:36:07;13.32;;;6.95;;
75935;SDS011;64614;32.062;34.834;2022-12-31T09:38:45;13.43;;;6.70;;
75935;SDS011;64614;32.062;34.834;2022-12-31T09:55:35;15.70;;;6.38;;
75935;SDS011;64614;32.062;34.834;2022-12-31T10:14:56;13.65;;;6.70;;
75935;SDS011;64614;32.062;34.834;2022-12-31T10:20:21;14.48;;;6.68;;
75935;SDS011;64614;32.062;34.834;2022-12-31T10:47:52;27.35;;;7.10;;
75935;SDS011;64614;32.062;34.834;2022-12-31T10:51:00;19.08;;;6.43;;
75935;SDS011;64614;32.062;34.834;2022-12-31T11:18:57;16.58;;;6.00;;
75935;SDS011;64614;32.062;34.834;2022-12-31T11:24:55;14.18;;;6.68;;
75935;SDS011;64614;32.062;34.834;2022-12-31T11:28:03;15.23;;;6.45;;
75935;SDS011;64614;32.062;34.834;2022-12-31T11:48:30;14.07;;;6.28;;
75935;SDS011;64614;32.062;34.834;2022-12-31T11:57:26;14.45;;;6.57;;
75935;SDS011;64614;32.062;34.834;2022-12-31T12:03:02;13.57;;;6.20;;
75935;SDS011;64614;32.062;34.834;2022-12-31T12:05:30;12.90;;;6.28;;
75935;SDS011;64614;32.062;34.834;2022-12-31T12:07:57;12.88;;;6.25;;
75935;SDS011;64614;32.062;34.834;2022-12-31T12:12:54;12.57;;;6.10;;
75935;SDS011;64614;32.062;34.834;2022-12-31T12:15:28;13.48;;;6.70;;
75935;SDS011;64614;32.062;34.834;2022-12-31T12:18:47;11.98;;;6.10;;
75935;SDS011;64614;32.062;34.834;2022-12-31T12:21:21;14.07;;;6.60;;
75935;SDS011;64614;32.062;34.834;2022-12-31T12:26:55;12.65;;;6.32;;
75935;SDS011;64614;32.062;34.834;2022-12-31T12:32:23;12.60;;;6.65;;
75935;SDS011;64614;32.062;34.834;2022-12-31T12:34:51;12.82;;;6.35;;
75935;SDS011;64614;32.062;34.834;2022-12-31T12:40:03;13.75;;;6.65;;
75935;SDS011;64614;32.062;34.834;2022-12-31T12:42:33;12.07;;;6.10;;
75935;SDS011;64614;32.062;34.834;2022-12-31T12:45:03;12.35;;;6.70;;
75935;SDS011;64614;32.062;34.834;2022-12-31T12:47:35;11.48;;;6.40;;
75935;SDS011;64614;32.062;34.834;2022-12-31T12:50:14;14.00;;;5.82;;
75935;SDS011;64614;32.062;34.834;2022-12-31T12:55:40;14.95;;;6.50;;
75935;SDS011;64614;32.062;34.834;2022-12-31T13:01:38;13.25;;;6.22;;
75935;SDS011;64614;32.062;34.834;2022-12-31T13:19:05;12.45;;;6.05;;
75935;SDS011;64614;32.062;34.834;2022-12-31T13:27:32;13.18;;;7.10;;
75935;SDS011;64614;32.062;34.834;2022-12-31T13:30:05;12.85;;;6.28;;
75935;SDS011;64614;32.062;34.834;2022-12-31T13:33:03;14.05;;;6.85;;
75935;SDS011;64614;32.062;34.834;2022-12-31T13:44:39;18.45;;;7.35;;
75935;SDS011;64614;32.062;34.834;2022-12-31T13:47:35;13.82;;;6.18;;
75935;SDS011;64614;32.062;34.834;2022-12-31T13:50:12;12.40;;;5.95;;
75935;SDS011;64614;32.062;34.834;2022-12-31T13:55:57;24.80;;;7.50;;
75935;SDS011;64614;32.062;34.834;2022-12-31T13:58:47;16.98;;;6.90;;
75935;SDS011;64614;32.062;34.834;2022-12-31T14:01:32;13.88;;;6.22;;
75935;SDS011;64614;32.062;34.834;2022-12-31T14:09:24;13.73;;;7.07;;
75935;SDS011;64614;32.062;34.834;2022-12-31T14:15:27;14.00;;;7.38;;
75935;SDS011;64614;32.062;34.834;2022-12-31T14:20:28;13.50;;;6.55;;
75935;SDS011;64614;32.062;34.834;2022-12-31T14:23:11;14.88;;;6.75;;
75935;SDS011;64614;32.062;34.834;2022-12-31T14:25:43;27.48;;;7.22;;
75935;SDS011;64614;32.062;34.834;2022-12-31T14:28:18;18.95;;;7.13;;
75935;SDS011;64614;32.062;34.834;2022-12-31T14:30:51;20.33;;;7.63;;
75935;SDS011;64614;32.062;34.834;2022-12-31T14:33:30;17.92;;;6.90;;
75935;SDS011;64614;32.062;34.834;2022-12-31T14:36:15;17.38;;;6.65;;
75935;SDS011;64614;32.062;34.834;2022-12-31T14:44:43;14.15;;;7.00;;
75935;SDS011;64614;32.062;34.834;2022-12-31T14:50:04;12.35;;;7.03;;
75935;SDS011;64614;32.062;34.834;2022-12-31T14:52:54;14.55;;;6.97;;
75935;SDS011;64614;32.062;34.834;2022-12-31T14:55:31;12.50;;;6.32;;
75935;SDS011;64614;32.062;34.834;2022-12-31T14:58:02;14.15;;;6.72;;
75935;SDS011;64614;32.062;34.834;2022-12-31T15:00:51;12.73;;;6.20;;
75935;SDS011;64614;32.062;34.834;2022-12-31T15:17:45;16.90;;;6.40;;
75935;SDS011;64614;32.062;34.834;2022-12-31T15:23:19;17.77;;;6.13;;
75935;SDS011;64614;32.062;34.834;2022-12-31T15:25:58;18.73;;;7.32;;
75935;SDS011;64614;32.062;34.834;2022-12-31T15:31:01;19.27;;;6.68;;
75935;SDS011;64614;32.062;34.834;2022-12-31T15:33:31;23.63;;;7.20;;
75935;SDS011;64614;32.062;34.834;2022-12-31T15:36:09;20.70;;;6.47;;
75935;SDS011;64614;32.062;34.834;2022-12-31T15:38:41;17.23;;;7.50;;
75935;SDS011;64614;32.062;34.834;2022-12-31T15:44:00;25.23;;;7.18;;
75935;SDS011;64614;32.062;34.834;2022-12-31T15:46:37;23.23;;;7.28;;
75935;SDS011;64614;32.062;34.834;2022-12-31T15:49:13;14.23;;;6.95;;
75935;SDS011;64614;32.062;34.834;2022-12-31T15:51:46;15.00;;;7.25;;
75935;SDS011;64614;32.062;34.834;2022-12-31T15:54:29;17.73;;;6.57;;
75935;SDS011;64614;32.062;34.834;2022-12-31T15:57:12;16.17;;;7.20;;
75935;SDS011;64614;32.062;34.834;2022-12-31T15:59:42;23.42;;;7.47;;
75935;SDS011;64614;32.062;34.834;2022-12-31T16:02:19;22.60;;;7.13;;
75935;SDS011;64614;32.062;34.834;2022-12-31T16:04:48;14.02;;;6.32;;
75935;SDS011;64614;32.062;34.834;2022-12-31T16:07:14;16.33;;;6.75;;
75935;SDS011;64614;32.062;34.834;2022-12-31T16:09:41;20.10;;;8.05;;
75935;SDS011;64614;32.062;34.834;2022-12-31T16:12:10;16.70;;;8.02;;
75935;SDS011;64614;32.062;34.834;2022-12-31T16:14:52;18.02;;;7.50;;
75935;SDS011;64614;32.062;34.834;2022-12-31T16:17:29;13.32;;;6.63;;
75935;SDS011;64614;32.062;34.834;2022-12-31T16:19:56;19.05;;;7.43;;
75935;SDS011;64614;32.062;34.834;2022-12-31T16:22:27;14.57;;;6.63;;
75935;SDS011;64614;32.062;34.834;2022-12-31T16:24:59;15.02;;;6.57;;
75935;SDS011;64614;32.062;34.834;2022-12-31T16:27:26;12.90;;;6.22;;
75935;SDS011;64614;32.062;34.834;2022-12-31T16:29:58;15.75;;;7.20;;
75935;SDS011;64614;32.062;34.834;2022-12-31T16:32:34;18.67;;;6.97;;
75935;SDS011;64614;32.062;34.834;2022-12-31T16:35:03;13.13;;;5.95;;
75935;SDS011;64614;32.062;34.834;2022-12-31T16:38:02;16.40;;;6.38;;
75935;SDS011;64614;32.062;34.834;2022-12-31T16:41:04;12.02;;;6.22;;
75935;SDS011;64614;32.062;34.834;2022-12-31T16:43:29;14.70;;;6.95;;
75935;SDS011;64614;32.062;34.834;2022-12-31T16:46:06;14.57;;;6.30;;
75935;SDS011;64614;32.062;34.834;2022-12-31T16:51:36;11.93;;;6.10;;
75935;SDS011;64614;32.062;34.834;2022-12-31T16:54:02;11.85;;;6.07;;
75935;SDS011;64614;32.062;34.834;2022-12-31T16:59:28;12.13;;;5.53;;
75935;SDS011;64614;32.062;34.834;2022-12-31T17:01:55;13.40;;;6.32;;
75935;SDS011;64614;32.062;34.834;2022-12-31T17:04:24;11.88;;;5.95;;
75935;SDS011;64614;32.062;34.834;2022-12-31T17:06:50;13.80;;;6.45;;
75935;SDS011;64614;32.062;34.834;2022-12-31T17:09:17;14.18;;;6.57;;
75935;SDS011;64614;32.062;34.834;2022-12-31T17:11:53;19.08;;;8.80;;
75935;SDS011;64614;32.062;34.834;2022-12-31T17:14:22;18.50;;;10.20;;
75935;SDS011;64614;32.062;34.834;2022-12-31T17:19:39;22.65;;;10.80;;
75935;SDS011;64614;32.062;34.834;2022-12-31T17:25:03;19.38;;;8.43;;
75935;SDS011;64614;32.062;34.834;2022-12-31T17:27:33;16.27;;;8.05;;
75935;SDS011;64614;32.062;34.834;2022-12-31T17:35:31;15.68;;;7.22;;
75935;SDS011;64614;32.062;34.834;2022-12-31T17:43:29;13.27;;;7.20;;
75935;SDS011;64614;32.062;34.834;2022-12-31T17:45:58;14.70;;;7.20;;
75935;SDS011;64614;32.062;34.834;2022-12-31T17:48:25;15.48;;;7.85;;
75935;SDS011;64614;32.062;34.834;2022-12-31T17:50:53;14.85;;;7.43;;
75935;SDS011;64614;32.062;34.834;2022-12-31T17:53:21;15.15;;;6.75;;
75935;SDS011;64614;32.062;34.834;2022-12-31T17:55:48;15.10;;;6.93;;
75935;SDS011;64614;32.062;34.834;2022-12-31T17:58:20;12.40;;;6.38;;
75935;SDS011;64614;32.062;34.834;2022-12-31T18:00:50;11.40;;;6.15;;
75935;SDS011;64614;32.062;34.834;2022-12-31T18:03:17;12.00;;;6.63;;
75935;SDS011;64614;32.062;34.834;2022-12-31T18:05:42;12.88;;;7.18;;
75935;SDS011;64614;32.062;34.834;2022-12-31T18:08:29;12.15;;;5.90;;
75935;SDS011;64614;32.062;34.834;2022-12-31T18:10:55;11.75;;;6.20;;
75935;SDS011;64614;32.062;34.834;2022-12-31T18:13:24;12.30;;;6.53;;
75935;SDS011;64614;32.062;34.834;2022-12-31T18:18:31;13.00;;;6.18;;
75935;SDS011;64614;32.062;34.834;2022-12-31T18:21:03;12.88;;;6.55;;
75935;SDS011;64614;32.062;34.834;2022-12-31T18:23:39;13.88;;;6.70;;
75935;SDS011;64614;32.062;34.834;2022-12-31T18:26:15;12.95;;;6.45;;
75935;SDS011;64614;32.062;34.834;2022-12-31T18:28:42;16.20;;;7.45;;
75935;SDS011;64614;32.062;34.834;2022-12-31T18:31:13;16.73;;;6.90;;
75935;SDS011;64614;32.062;34.834;2022-12-31T18:33:47;11.73;;;6.57;;
75935;SDS011;64614;32.062;34.834;2022-12-31T18:36:15;13.93;;;6.88;;
75935;SDS011;64614;32.062;34.834;2022-12-31T18:38:43;14.55;;;6.28;;
75935;SDS011;64614;32.062;34.834;2022-12-31T18:41:18;13.05;;;6.78;;
75935;SDS011;64614;32.062;34.834;2022-12-31T18:43:46;12.05;;;6.72;;
75935;SDS011;64614;32.062;34.834;2022-12-31T18:46:14;11.48;;;6.53;;
75935;SDS011;64614;32.062;34.834;2022-12-31T18:48:41;10.77;;;6.47;;
75935;SDS011;64614;32.062;34.834;2022-12-31T18:51:15;11.20;;;5.93;;
75935;SDS011;64614;32.062;34.834;2022-12-31T18:53:45;13.23;;;6.38;;
75935;SDS011;64614;32.062;34.834;2022-12-31T18:56:13;11.32;;;6.15;;
75935;SDS011;64614;32.062;34.834;2022-12-31T18:58:42;12.27;;;6.20;;
75935;SDS011;64614;32.062;34.834;2022-12-31T19:01:21;11.48;;;6.10;;
75935;SDS011;64614;32.062;34.834;2022-12-31T19:03:51;15.35;;;8.32;;
75935;SDS011;64614;32.062;34.834;2022-12-31T19:06:18;29.60;;;9.45;;
75935;SDS011;64614;32.062;34.834;2022-12-31T19:08:43;18.73;;;7.93;;
75935;SDS011;64614;32.062;34.834;2022-12-31T19:11:13;15.10;;;7.25;;
75935;SDS011;64614;32.062;34.834;2022-12-31T19:13:41;10.85;;;5.95;;
75935;SDS011;64614;32.062;34.834;2022-12-31T19:18:32;12.85;;;6.25;;
75935;SDS011;64614;32.062;34.834;2022-12-31T19:20:58;13.02;;;6.75;;
75935;SDS011;64614;32.062;34.834;2022-12-31T19:23:24;10.77;;;6.35;;
75935;SDS011;64614;32.062;34.834;2022-12-31T19:25:49;11.45;;;6.30;;
75935;SDS011;64614;32.062;34.834;2022-12-31T19:28:21;12.68;;;6.07;;
75935;SDS011;64614;32.062;34.834;2022-12-31T19:30:48;12.25;;;6.15;;
75935;SDS011;64614;32.062;34.834;2022-12-31T19:33:15;11.18;;;6.32;;
75935;SDS011;64614;32.062;34.834;2022-12-31T19:35:42;10.85;;;6.00;;
75935;SDS011;64614;32.062;34.834;2022-12-31T19:38:16;9.60;;;5.85;;
75935;SDS011;64614;32.062;34.834;2022-12-31T19:40:44;11.52;;;5.97;;
75935;SDS011;64614;32.062;34.834;2022-12-31T19:43:11;11.40;;;5.90;;
75935;SDS011;64614;32.062;34.834;2022-12-31T19:45:39;10.93;;;5.72;;
75935;SDS011;64614;32.062;34.834;2022-12-31T19:48:07;10.45;;;5.78;;
75935;SDS011;64614;32.062;34.834;2022-12-31T19:50:38;13.13;;;6.18;;
75935;SDS011;64614;32.062;34.834;2022-12-31T19:53:07;10.85;;;5.80;;
75935;SDS011;64614;32.062;34.834;2022-12-31T19:55:36;10.98;;;6.07;;
75935;SDS011;64614;32.062;34.834;2022-12-31T19:58:02;11.93;;;6.00;;
75935;SDS011;64614;32.062;34.834;2022-12-31T20:00:28;10.82;;;5.82;;
75935;SDS011;64614;32.062;34.834;2022-12-31T20:02:54;11.35;;;5.78;;
75935;SDS011;64614;32.062;34.834;2022-12-31T20:05:19;10.77;;;5.88;;
75935;SDS011;64614;32.062;34.834;2022-12-31T20:07:45;10.57;;;5.80;;
75935;SDS011;64614;32.062;34.834;2022-12-31T20:10:11;11.63;;;5.95;;
75935;SDS011;64614;32.062;34.834;2022-12-31T20:12:43;11.00;;;5.82;;
75935;SDS011;64614;32.062;34.834;2022-12-31T20:15:10;10.45;;;6.28;;
75935;SDS011;64614;32.062;34.834;2022-12-31T20:17:40;12.15;;;6.10;;
75935;SDS011;64614;32.062;34.834;2022-12-31T20:20:07;10.43;;;5.45;;
75935;SDS011;64614;32.062;34.834;2022-12-31T20:22:33;10.85;;;5.63;;
75935;SDS011;64614;32.062;34.834;2022-12-31T20:24:59;13.90;;;5.72;;
75935;SDS011;64614;32.062;34.834;2022-12-31T20:27:24;11.57;;;5.60;;
75935;SDS011;64614;32.062;34.834;2022-12-31T20:29:50;9.98;;;5.68;;
75935;SDS011;64614;32.062;34.834;2022-12-31T20:32:16;11.07;;;5.72;;
75935;SDS011;64614;32.062;34.834;2022-12-31T20:34:44;9.90;;;5.63;;
75935;SDS011;64614;32.062;34.834;2022-12-31T20:37:10;11.20;;;6.10;;
75935;SDS011;64614;32.062;34.834;2022-12-31T20:39:36;11.40;;;6.30;;